Time;durP1;ratioP1;P1;durP2;ratioP2;P2;SDS_P1;SDS_P2;PMS_P1;PMS_P2;Temp;Humidity;BMP_temperature;BMP_pressure;BME280_temperature;BME280_humidity;BME280_pressure;Samples;Min_cycle;Max_cycle;Signal;HPM_P1;HPM_P2
2022/04/21 00:01:31;;;;;;;5.43;4.40;;;15.40;75.90;;;;;;5040670;28;20212;-41
2022/04/21 00:03:58;;;;;;;6.15;4.45;;;15.30;76.20;;;;;;5031499;28;20229;-41
2022/04/21 00:06:28;;;;;;;5.95;4.20;;;15.30;76.00;;;;;;5032134;28;20290;-41
2022/04/21 00:08:56;;;;;;;5.28;4.43;;;15.30;76.00;;;;;;5029327;28;20211;-42
2022/04/21 00:11:25;;;;;;;5.55;4.00;;;15.20;76.30;;;;;;5037613;28;20304;-41
2022/04/21 00:13:52;;;;;;;6.82;4.30;;;15.20;76.10;;;;;;5037205;28;20205;-41
2022/04/21 00:16:19;;;;;;;5.20;4.00;;;15.20;76.40;;;;;;5039332;28;20242;-41
2022/04/21 00:18:49;;;;;;;7.25;4.43;;;15.20;76.10;;;;;;5034971;28;20220;-41
2022/04/21 00:21:16;;;;;;;7.47;4.25;;;15.10;76.20;;;;;;5033314;28;20287;-41
2022/04/21 00:23:48;;;;;;;6.47;4.00;;;15.10;76.10;;;;;;5033371;28;20675;-33
2022/04/21 00:26:16;;;;;;;5.22;4.20;;;15.10;76.40;;;;;;5033870;28;20318;-34
2022/04/21 00:28:47;;;;;;;6.50;4.20;;;15.10;76.30;;;;;;5030600;28;20213;-34
2022/04/21 00:31:15;;;;;;;6.30;4.15;;;15.00;77.20;;;;;;5041936;28;20642;-35
2022/04/21 00:33:42;;;;;;;6.32;4.30;;;15.00;76.40;;;;;;5037328;28;20217;-35
2022/04/21 00:36:10;;;;;;;6.68;3.85;;;15.00;76.30;;;;;;5038514;28;20475;-34
2022/04/21 00:38:37;;;;;;;6.32;4.63;;;14.90;76.40;;;;;;5045227;28;20225;-34
2022/04/21 00:41:07;;;;;;;8.40;4.65;;;14.90;76.60;;;;;;5041964;28;20221;-35
2022/04/21 00:43:34;;;;;;;8.30;4.60;;;14.90;76.40;;;;;;5041216;28;20646;-35
2022/04/21 00:46:06;;;;;;;6.00;4.40;;;14.80;76.40;;;;;;5045440;28;21002;-35
2022/04/21 00:48:36;;;;;;;7.25;4.55;;;14.80;76.60;;;;;;5047406;28;20203;-35
2022/04/21 00:51:03;;;;;;;6.55;4.35;;;14.80;76.40;;;;;;5040562;28;20285;-35
2022/04/21 00:53:33;;;;;;;6.72;4.30;;;14.70;76.40;;;;;;5037961;28;20215;-34
2022/04/21 00:56:02;;;;;;;5.35;4.40;;;14.70;76.30;;;;;;5039652;28;20249;-42
2022/04/21 00:58:30;;;;;;;6.68;4.88;;;14.70;76.50;;;;;;5043248;28;20319;-42
2022/04/21 01:00:57;;;;;;;6.50;4.20;;;14.70;76.50;;;;;;5043430;28;20204;-42
2022/04/21 01:03:25;;;;;;;6.30;4.68;;;14.70;76.50;;;;;;5042214;28;20215;-42
2022/04/21 01:05:53;;;;;;;8.18;4.70;;;14.60;76.80;;;;;;5042874;28;20299;-42
2022/04/21 01:08:20;;;;;;;8.55;4.60;;;14.60;76.70;;;;;;5038836;28;20316;-35
2022/04/21 01:10:49;;;;;;;7.80;4.22;;;14.60;76.80;;;;;;5039404;28;20239;-34
2022/04/21 01:13:20;;;;;;;6.85;4.30;;;14.50;76.70;;;;;;5042118;28;20208;-36
2022/04/21 01:15:50;;;;;;;5.78;4.78;;;14.50;76.60;;;;;;5040192;28;20236;-35
2022/04/21 01:18:28;;;;;;;6.50;4.60;;;14.50;76.60;;;;;;5038195;28;20213;-35
2022/04/21 01:20:58;;;;;;;8.00;4.90;;;14.40;77.10;;;;;;5036238;28;20208;-35
2022/04/21 01:23:28;;;;;;;7.78;4.57;;;14.40;76.90;;;;;;5042375;28;21661;-35
2022/04/21 01:26:02;;;;;;;6.65;5.10;;;14.30;76.80;;;;;;5035940;28;20204;-35
2022/04/21 01:28:32;;;;;;;6.57;5.30;;;14.30;76.80;;;;;;5038553;28;20252;-35
2022/04/21 01:31:04;;;;;;;7.30;4.70;;;14.30;77.10;;;;;;5031747;28;20205;-34
2022/04/21 01:33:31;;;;;;;8.98;5.05;;;14.20;76.80;;;;;;5040295;28;20235;-35
2022/04/21 01:35:58;;;;;;;7.47;4.90;;;14.20;77.00;;;;;;5033730;28;20280;-35
2022/04/21 01:41:14;;;;;;;9.48;5.72;;;14.10;77.00;;;;;;5032462;28;20212;-33
2022/04/21 01:43:44;;;;;;;7.70;5.05;;;14.10;77.20;;;;;;5043913;28;20282;-33
2022/04/21 01:46:14;;;;;;;7.40;5.15;;;14.00;77.10;;;;;;5041726;28;20213;-33
2022/04/21 01:48:44;;;;;;;6.72;5.07;;;14.00;77.20;;;;;;5041884;28;20263;-34
2022/04/21 01:51:15;;;;;;;7.47;5.13;;;14.00;77.20;;;;;;5037096;28;20208;-33
2022/04/21 01:53:45;;;;;;;6.50;4.72;;;14.00;77.20;;;;;;5040267;28;20231;-33
2022/04/21 01:56:15;;;;;;;5.78;4.80;;;13.90;77.20;;;;;;5040120;28;20294;-35
2022/04/21 01:58:42;;;;;;;8.30;4.90;;;13.90;77.10;;;;;;5037297;28;20204;-35
2022/04/21 02:01:12;;;;;;;9.32;5.40;;;13.90;77.40;;;;;;5042845;28;20255;-35
2022/04/21 02:03:42;;;;;;;7.10;5.40;;;13.80;77.20;;;;;;5031327;28;20722;-36
2022/04/21 02:06:13;;;;;;;7.53;5.20;;;13.80;77.50;;;;;;5030980;28;20204;-36
2022/04/21 02:08:46;;;;;;;7.95;4.70;;;13.80;77.50;;;;;;5038849;28;20208;-36
2022/04/21 02:11:16;;;;;;;6.80;4.90;;;13.80;77.40;;;;;;5041644;28;20691;-36
2022/04/21 02:13:45;;;;;;;7.65;4.75;;;13.70;77.60;;;;;;5042512;28;20204;-36
2022/04/21 02:16:17;;;;;;;6.55;4.70;;;13.70;78.20;;;;;;5036777;28;20204;-36
2022/04/21 02:18:46;;;;;;;7.28;5.07;;;13.70;77.50;;;;;;5040913;28;20217;-36
2022/04/21 02:21:13;;;;;;;5.93;4.38;;;13.70;77.50;;;;;;5032696;28;20208;-36
2022/04/21 02:23:40;;;;;;;8.30;4.85;;;13.70;77.60;;;;;;5034844;28;20666;-36
2022/04/21 02:26:15;;;;;;;9.25;4.72;;;13.60;77.60;;;;;;5040478;28;20207;-36
2022/04/21 02:28:42;;;;;;;8.13;5.03;;;13.60;77.70;;;;;;5036354;28;20228;-36
2022/04/21 02:31:11;;;;;;;7.25;4.82;;;13.60;77.60;;;;;;5037390;28;20209;-36
2022/04/21 02:33:41;;;;;;;5.47;4.55;;;13.60;77.80;;;;;;5041259;28;20211;-36
2022/04/21 02:36:08;;;;;;;6.93;4.53;;;13.60;77.90;;;;;;5037371;28;20286;-36
2022/04/21 02:38:41;;;;;;;6.97;4.93;;;13.50;77.80;;;;;;5039073;28;20238;-36
2022/04/21 02:41:10;;;;;;;5.72;4.63;;;13.50;77.80;;;;;;5036203;28;20513;-37
2022/04/21 02:43:37;;;;;;;7.68;4.57;;;13.40;78.10;;;;;;5044008;28;20189;-37
2022/04/21 02:46:05;;;;;;;7.93;5.07;;;13.40;77.90;;;;;;5040610;28;20656;-37
2022/04/21 02:48:34;;;;;;;6.20;4.47;;;13.40;78.00;;;;;;5040963;28;20263;-37
2022/04/21 02:51:03;;;;;;;7.53;5.22;;;13.40;78.00;;;;;;5037539;28;20302;-37
2022/04/21 02:59:03;;;;;;;5.13;4.43;;;13.30;78.10;;;;;;5036818;28;20247;-37
2022/04/21 03:01:30;;;;;;;6.25;4.50;;;13.30;78.10;;;;;;5036864;28;20224;-37
2022/04/21 03:04:05;;;;;;;6.05;4.68;;;13.20;78.10;;;;;;5035897;28;20281;-37
2022/04/21 03:06:32;;;;;;;6.28;4.75;;;13.20;78.30;;;;;;5041733;28;20203;-37
2022/04/21 03:09:04;;;;;;;7.65;5.07;;;13.20;78.20;;;;;;5036340;28;20219;-37
2022/04/21 03:11:34;;;;;;;6.63;4.72;;;13.10;78.30;;;;;;5040925;28;20216;-42
2022/04/21 03:14:01;;;;;;;6.57;5.03;;;13.10;78.40;;;;;;5032307;28;20690;-36
2022/04/21 03:16:28;;;;;;;7.15;4.40;;;13.10;78.30;;;;;;5040157;28;20297;-36
2022/04/21 03:18:58;;;;;;;6.13;4.82;;;13.10;78.80;;;;;;5035096;28;20259;-35
2022/04/21 03:24:20;;;;;;;6.53;4.32;;;13.00;78.20;;;;;;5037106;28;20295;-36
2022/04/21 03:26:50;;;;;;;5.60;4.60;;;13.00;79.00;;;;;;5034924;28;20215;-36
2022/04/21 03:29:18;;;;;;;5.82;4.18;;;13.00;78.50;;;;;;5037984;28;20211;-36
2022/04/21 03:31:45;;;;;;;5.22;4.38;;;13.00;78.50;;;;;;5034112;28;20263;-36
2022/04/21 03:34:19;;;;;;;5.53;4.07;;;13.00;78.40;;;;;;5038185;28;20204;-36
2022/04/21 03:36:49;;;;;;;5.20;4.47;;;13.00;78.70;;;;;;5035321;28;20216;-36
2022/04/21 03:39:18;;;;;;;7.05;5.20;;;12.90;78.60;;;;;;5031698;28;20204;-36
2022/04/21 03:41:45;;;;;;;5.75;4.90;;;12.90;78.70;;;;;;5034604;28;20205;-36
2022/04/21 03:44:15;;;;;;;6.68;4.60;;;12.90;78.90;;;;;;5036469;28;20299;-36
2022/04/21 03:46:44;;;;;;;6.20;4.30;;;12.90;78.70;;;;;;5037911;28;20213;-36
2022/04/21 03:49:14;;;;;;;5.32;4.60;;;12.90;79.20;;;;;;5034624;28;20837;-36
2022/04/21 03:51:42;;;;;;;6.22;4.80;;;12.90;79.00;;;;;;5040125;28;20231;-36
2022/04/21 03:54:11;;;;;;;4.78;4.18;;;12.90;78.80;;;;;;5036349;28;20247;-36
2022/04/21 03:56:41;;;;;;;5.70;5.03;;;12.90;78.90;;;;;;5033381;28;20590;-36
2022/04/21 03:59:10;;;;;;;7.28;4.90;;;12.80;78.90;;;;;;5038463;28;20212;-36
2022/04/21 04:01:40;;;;;;;9.98;4.90;;;12.90;79.00;;;;;;5029823;28;20693;-36
2022/04/21 04:04:07;;;;;;;6.25;4.60;;;12.80;78.90;;;;;;5034143;28;20208;-36
2022/04/21 04:12:11;;;;;;;7.47;4.68;;;12.70;78.90;;;;;;5041295;28;20258;-36
2022/04/21 04:14:39;;;;;;;6.15;4.50;;;12.70;79.80;;;;;;5038602;28;20308;-36
2022/04/21 04:17:08;;;;;;;7.18;4.82;;;12.70;79.50;;;;;;5043270;28;20245;-36
2022/04/21 04:19:38;;;;;;;5.95;4.75;;;12.70;79.60;;;;;;5039426;28;20339;-36
2022/04/21 04:22:08;;;;;;;7.15;5.20;;;12.60;79.40;;;;;;5041639;28;20208;-36
2022/04/21 04:24:35;;;;;;;6.45;4.72;;;12.60;79.40;;;;;;5042422;28;20208;-36
2022/04/21 04:27:12;;;;;;;7.13;4.97;;;12.60;79.40;;;;;;5037701;28;20558;-36
2022/04/21 04:29:41;;;;;;;7.82;5.00;;;12.50;79.70;;;;;;5039560;28;20294;-36
2022/04/21 04:32:09;;;;;;;5.88;4.72;;;12.50;79.40;;;;;;5042576;28;20251;-37
2022/04/21 04:34:36;;;;;;;7.47;4.90;;;12.50;79.60;;;;;;5041514;28;20211;-36
2022/04/21 04:37:06;;;;;;;7.90;5.03;;;12.40;79.60;;;;;;5040643;28;20672;-36
2022/04/21 04:39:33;;;;;;;7.78;4.93;;;12.40;79.60;;;;;;5039598;28;20227;-36
2022/04/21 04:42:43;;;;;;;6.93;5.22;;;12.40;79.70;;;;;;5045368;28;20683;-36
2022/04/21 04:46:34;;;;;;;5.57;4.40;;;12.30;79.70;;;;;;5039402;28;20205;-36
2022/04/21 04:47:40;;;;;;;5.25;4.00;;;12.30;79.50;;;;;;5050286;28;20244;-36
2022/04/21 04:50:11;;;;;;;5.57;4.57;;;12.30;79.50;;;;;;5036330;28;20270;-36
2022/04/21 04:52:43;;;;;;;7.03;4.43;;;12.20;80.00;;;;;;5040295;28;20702;-36
2022/04/21 04:55:13;;;;;;;6.07;4.90;;;12.20;79.70;;;;;;5043403;28;20279;-36
2022/04/21 04:57:40;;;;;;;5.53;4.70;;;12.20;79.60;;;;;;5033897;28;20236;-36
2022/04/21 05:00:10;;;;;;;10.40;5.30;;;12.20;79.40;;;;;;5039070;28;20231;-36
2022/04/21 05:02:37;;;;;;;6.13;4.78;;;12.20;79.60;;;;;;5035474;28;20221;-36
2022/04/21 05:05:12;;;;;;;5.53;4.55;;;12.20;80.30;;;;;;5043939;28;20238;-36
2022/04/21 05:07:39;;;;;;;6.28;4.45;;;12.20;79.90;;;;;;5034204;28;20232;-36
2022/04/21 05:10:08;;;;;;;5.70;4.43;;;12.30;80.10;;;;;;5033749;28;20242;-37
2022/04/21 05:12:40;;;;;;;6.47;4.68;;;12.20;80.00;;;;;;5030236;28;20197;-36
2022/04/21 05:15:09;;;;;;;8.40;5.10;;;12.30;80.60;;;;;;5028841;28;20772;-36
2022/04/21 05:17:40;;;;;;;8.80;4.50;;;12.30;80.70;;;;;;5031133;28;20246;-36
2022/04/21 05:20:24;;;;;;;6.85;4.60;;;12.30;80.70;;;;;;5042939;28;20205;-36
2022/04/21 05:23:02;;;;;;;5.65;4.50;;;12.30;80.30;;;;;;5038179;28;20258;-37
2022/04/21 05:25:31;;;;;;;8.48;4.30;;;12.30;80.80;;;;;;5039328;28;20216;-36
2022/04/21 05:28:00;;;;;;;5.80;4.47;;;12.30;80.20;;;;;;5032806;28;20231;-36
2022/04/21 05:33:17;;;;;;;9.05;4.75;;;12.30;80.30;;;;;;5042397;28;20217;-37
2022/04/21 05:35:47;;;;;;;9.20;4.82;;;12.40;80.60;;;;;;5033789;28;20205;-36
2022/04/21 05:38:22;;;;;;;6.43;4.40;;;12.40;81.10;;;;;;5036085;28;20211;-36
2022/04/21 05:40:53;;;;;;;7.45;4.70;;;12.40;80.60;;;;;;5033372;28;20208;-37
2022/04/21 05:43:30;;;;;;;9.50;4.80;;;12.40;80.90;;;;;;5036348;28;20306;-36
2022/04/21 05:45:58;;;;;;;5.63;4.78;;;12.40;80.80;;;;;;5039161;28;20312;-37
2022/04/21 05:48:26;;;;;;;12.88;5.55;;;12.40;80.90;;;;;;5035329;28;20307;-37
2022/04/21 05:51:00;;;;;;;5.75;4.72;;;12.40;80.90;;;;;;5043750;28;20220;-36
2022/04/21 05:53:30;;;;;;;6.10;4.88;;;12.50;81.20;;;;;;5033460;28;20224;-37
2022/04/21 05:56:01;;;;;;;8.27;4.82;;;12.50;81.10;;;;;;5037777;28;20232;-37
2022/04/21 05:58:28;;;;;;;10.38;5.03;;;12.50;81.20;;;;;;5033041;28;20330;-37
2022/04/21 06:01:07;;;;;;;7.68;5.15;;;12.60;81.60;;;;;;5035388;28;20224;-37
2022/04/21 06:03:46;;;;;;;6.03;4.30;;;12.60;82.10;;;;;;5032759;28;20700;-37
2022/04/21 06:06:13;;;;;;;8.40;4.43;;;12.60;81.20;;;;;;5028406;28;20702;-37
2022/04/21 06:08:43;;;;;;;6.85;4.40;;;12.70;81.20;;;;;;5031770;28;20235;-37
2022/04/21 06:11:13;;;;;;;11.70;5.07;;;12.70;81.50;;;;;;5029811;28;20224;-37
2022/04/21 06:13:46;;;;;;;16.77;5.07;;;12.80;81.50;;;;;;5036018;28;20292;-37
2022/04/21 06:16:15;;;;;;;11.10;5.03;;;12.80;81.40;;;;;;5037520;28;20208;-36
2022/04/21 06:18:48;;;;;;;9.10;4.72;;;12.90;81.40;;;;;;5041373;28;20224;-37
2022/04/21 06:21:15;;;;;;;6.72;4.90;;;12.90;81.40;;;;;;5036830;28;20258;-36
2022/04/21 06:23:45;;;;;;;8.45;5.45;;;12.90;82.00;;;;;;5034277;28;20860;-37
2022/04/21 06:26:17;;;;;;;6.55;4.55;;;12.90;82.90;;;;;;5037126;28;20691;-36
2022/04/21 06:28:50;;;;;;;9.20;5.20;;;13.00;82.20;;;;;;5038291;28;20207;-36
2022/04/21 06:31:17;;;;;;;7.75;4.90;;;13.00;81.90;;;;;;5045224;28;20212;-37
2022/04/21 06:33:46;;;;;;;9.32;5.53;;;13.10;81.60;;;;;;5038023;28;20633;-37
2022/04/21 06:36:16;;;;;;;8.90;5.32;;;13.10;82.20;;;;;;5030414;28;20213;-36
2022/04/21 06:38:44;;;;;;;6.47;5.05;;;13.10;82.10;;;;;;5035668;28;20516;-37
2022/04/21 06:41:14;;;;;;;7.07;4.53;;;13.20;82.40;;;;;;5030623;28;20213;-37
2022/04/21 06:49:22;;;;;;;10.00;5.45;;;13.30;83.40;;;;;;5037713;28;20251;-37
2022/04/21 06:51:49;;;;;;;6.20;4.47;;;13.30;82.90;;;;;;5038586;28;20201;-37
2022/04/21 06:54:16;;;;;;;5.28;4.00;;;13.30;82.40;;;;;;5038157;28;20311;-38
2022/04/21 06:56:48;;;;;;;7.30;4.28;;;13.40;82.30;;;;;;5032809;28;20267;-37
2022/04/21 06:59:17;;;;;;;6.28;4.35;;;13.40;82.50;;;;;;5034606;28;20622;-37
2022/04/21 07:01:47;;;;;;;6.85;4.57;;;13.50;82.90;;;;;;5041224;28;20247;-37
2022/04/21 07:04:15;;;;;;;5.93;4.20;;;13.50;83.00;;;;;;5031573;28;20216;-37
2022/04/21 07:06:42;;;;;;;8.35;4.93;;;13.60;82.60;;;;;;5033759;28;20267;-37
2022/04/21 07:09:09;;;;;;;5.65;4.30;;;13.60;82.80;;;;;;5022227;28;20220;-37
2022/04/21 07:11:40;;;;;;;6.72;4.22;;;13.70;83.10;;;;;;5036389;28;20705;-37
2022/04/21 07:14:07;;;;;;;7.55;3.83;;;13.70;82.70;;;;;;5028334;28;20679;-37
2022/04/21 07:16:35;;;;;;;6.25;4.10;;;13.80;82.80;;;;;;5032435;28;20196;-36
2022/04/21 07:19:02;;;;;;;9.45;4.45;;;13.80;82.60;;;;;;5034192;28;20223;-36
2022/04/21 07:21:29;;;;;;;5.90;4.05;;;13.90;82.80;;;;;;5033030;28;20216;-37
2022/04/21 07:23:57;;;;;;;7.05;4.30;;;13.90;82.70;;;;;;5031447;28;20698;-37
2022/04/21 07:26:28;;;;;;;7.88;4.38;;;14.00;84.70;;;;;;5035150;28;20589;-36
2022/04/21 07:28:57;;;;;;;5.88;3.72;;;14.10;83.40;;;;;;5030950;28;20251;-37
2022/04/21 07:31:24;;;;;;;3.80;3.20;;;14.10;83.10;;;;;;5038239;28;20219;-37
2022/04/21 07:33:52;;;;;;;4.97;3.30;;;14.20;83.10;;;;;;5036247;28;20675;-37
2022/04/21 07:36:22;;;;;;;6.70;3.47;;;14.20;83.10;;;;;;5028505;28;20207;-36
2022/04/21 07:38:54;;;;;;;7.88;4.15;;;14.30;83.40;;;;;;5030607;28;20224;-37
2022/04/21 07:41:23;;;;;;;7.93;4.07;;;14.30;83.40;;;;;;5046420;28;20218;-36
2022/04/21 07:43:53;;;;;;;6.22;3.30;;;14.40;83.20;;;;;;5034112;28;20287;-37
2022/04/21 07:46:20;;;;;;;4.55;3.22;;;14.40;83.40;;;;;;5041942;28;20270;-37
2022/04/21 07:51:34;;;;;;;4.97;3.30;;;14.50;83.20;;;;;;5033410;28;20360;-37
2022/04/21 07:54:01;;;;;;;4.32;3.08;;;14.60;83.50;;;;;;5040336;28;20219;-36
2022/04/21 07:56:28;;;;;;;4.93;3.10;;;14.60;83.70;;;;;;5026257;28;20259;-37
2022/04/21 07:58:56;;;;;;;4.93;2.92;;;14.60;83.40;;;;;;5025710;28;20298;-37
2022/04/21 08:01:26;;;;;;;5.40;3.10;;;14.70;83.40;;;;;;5025876;28;20727;-37
2022/04/21 08:04:01;;;;;;;4.35;3.10;;;14.70;83.50;;;;;;5026865;28;20248;-37
2022/04/21 08:06:34;;;;;;;6.18;3.10;;;14.70;83.60;;;;;;5033400;28;20318;-37
2022/04/21 08:09:04;;;;;;;3.58;2.92;;;14.80;83.60;;;;;;5035721;28;20244;-37
2022/04/21 08:11:34;;;;;;;3.60;2.55;;;14.80;83.50;;;;;;5039434;28;20666;-37
2022/04/21 08:14:04;;;;;;;6.78;3.15;;;14.80;83.50;;;;;;5033547;28;20239;-37
2022/04/21 08:16:33;;;;;;;6.20;3.00;;;14.90;83.60;;;;;;5037890;28;20200;-37
2022/04/21 08:19:04;;;;;;;7.57;3.35;;;14.90;83.50;;;;;;5034459;28;20233;-37
2022/04/21 08:21:34;;;;;;;7.00;2.92;;;15.00;83.40;;;;;;5036688;28;20351;-37
2022/04/21 08:33:14;;;;;;;4.55;2.90;;;15.30;83.40;;;;;;5037775;28;20258;-37
2022/04/21 08:35:44;;;;;;;5.68;3.60;;;15.40;83.60;;;;;;5031868;28;20208;-37
2022/04/21 08:38:12;;;;;;;4.38;3.33;;;15.40;83.70;;;;;;5036121;28;20212;-37
2022/04/21 08:40:51;;;;;;;5.20;3.22;;;15.50;83.70;;;;;;5034422;28;20206;-37
2022/04/21 08:43:19;;;;;;;5.90;3.30;;;15.50;83.60;;;;;;5033795;28;20208;-37
2022/04/21 08:45:50;;;;;;;4.95;3.28;;;15.60;83.70;;;;;;5033975;28;20622;-38
2022/04/21 08:48:24;;;;;;;4.50;3.22;;;15.60;83.70;;;;;;5037208;28;20209;-38
2022/04/21 08:50:54;;;;;;;6.10;4.00;;;15.70;84.00;;;;;;5030282;28;20386;-37
2022/04/21 08:53:26;;;;;;;6.00;4.20;;;15.70;84.10;;;;;;5039152;28;20209;-37
2022/04/21 08:55:58;;;;;;;10.30;4.53;;;15.80;84.10;;;;;;5033610;28;20241;-37
2022/04/21 08:58:28;;;;;;;6.43;3.80;;;15.80;84.10;;;;;;5038543;28;20711;-36
2022/04/21 09:00:58;;;;;;;7.38;3.80;;;15.90;84.90;;;;;;5035906;28;20632;-37
2022/04/21 09:03:29;;;;;;;4.80;4.25;;;15.90;84.20;;;;;;5043455;28;20208;-37
2022/04/21 09:06:00;;;;;;;6.80;3.72;;;15.90;84.60;;;;;;5037024;28;20235;-37
2022/04/21 09:08:27;;;;;;;9.30;3.53;;;16.00;84.40;;;;;;5039131;28;20279;-37
2022/04/21 09:11:05;;;;;;;8.25;4.65;;;16.00;84.40;;;;;;5036957;28;20213;-37
2022/04/21 09:13:45;;;;;;;6.40;3.70;;;16.10;84.70;;;;;;5040572;28;20606;-37
2022/04/21 09:16:14;;;;;;;6.90;3.42;;;16.20;84.50;;;;;;5038868;28;20725;-37
2022/04/21 09:18:43;;;;;;;3.90;3.10;;;16.20;84.50;;;;;;5043727;28;20283;-37
2022/04/21 09:21:17;;;;;;;6.45;3.30;;;16.30;84.70;;;;;;5040242;28;20209;-37
2022/04/21 09:23:48;;;;;;;5.75;3.72;;;16.40;84.80;;;;;;5034308;28;20224;-37
2022/04/21 09:26:21;;;;;;;6.60;3.83;;;16.40;84.80;;;;;;5036674;28;20609;-37
2022/04/21 09:28:58;;;;;;;4.38;3.15;;;16.50;84.80;;;;;;5036711;28;20222;-37
2022/04/21 09:31:27;;;;;;;6.18;3.20;;;16.50;84.70;;;;;;5039167;28;20398;-37
2022/04/21 09:33:58;;;;;;;6.57;3.65;;;16.60;84.90;;;;;;5032922;28;21614;-37
2022/04/21 09:36:29;;;;;;;8.15;3.67;;;16.60;84.60;;;;;;5028205;28;20215;-37
2022/04/21 09:39:03;;;;;;;8.65;3.28;;;16.60;84.60;;;;;;5034176;28;20576;-36
2022/04/21 09:41:33;;;;;;;4.03;3.00;;;16.60;84.40;;;;;;5035289;28;20236;-37
2022/04/21 09:47:07;;;;;;;4.82;3.65;;;16.70;84.40;;;;;;5036407;28;20299;-37
2022/04/21 09:49:43;;;;;;;10.50;4.20;;;16.70;84.30;;;;;;5037302;28;20543;-38
2022/04/21 09:52:13;;;;;;;9.43;4.25;;;16.80;84.30;;;;;;5032283;28;20224;-37
2022/04/21 09:54:41;;;;;;;7.97;3.70;;;16.80;84.40;;;;;;5031202;28;20232;-37
2022/04/21 09:57:10;;;;;;;6.28;3.83;;;16.80;84.50;;;;;;5039369;28;20208;-38
2022/04/21 09:59:40;;;;;;;5.05;3.65;;;16.90;84.70;;;;;;5033550;28;20220;-37
2022/04/21 10:02:08;;;;;;;4.68;3.38;;;16.90;84.80;;;;;;5031518;28;20235;-37
2022/04/21 10:04:39;;;;;;;5.10;3.25;;;17.00;84.70;;;;;;5037542;28;20591;-37
2022/04/21 10:07:11;;;;;;;8.20;3.00;;;17.00;84.10;;;;;;5040070;28;20277;-37
2022/04/21 10:09:44;;;;;;;5.72;3.17;;;17.00;83.50;;;;;;5033239;28;20224;-38
2022/04/21 10:12:16;;;;;;;5.20;3.15;;;17.00;83.80;;;;;;5041791;28;20236;-38
2022/04/21 10:14:45;;;;;;;3.80;2.85;;;17.10;84.00;;;;;;5035833;28;20308;-38
2022/04/21 10:17:20;;;;;;;5.03;3.05;;;17.10;83.70;;;;;;5038121;28;20689;-38
2022/04/21 10:19:51;;;;;;;3.20;2.80;;;17.10;83.90;;;;;;5035913;28;20224;-38
2022/04/21 10:22:31;;;;;;;4.82;3.60;;;17.20;84.20;;;;;;5037320;28;20197;-38
2022/04/21 10:25:09;;;;;;;3.80;2.78;;;17.20;84.00;;;;;;5035238;28;20591;-38
2022/04/21 10:27:44;;;;;;;4.88;2.95;;;17.30;84.10;;;;;;5028651;28;20211;-37
2022/04/21 10:30:32;;;;;;;4.15;2.97;;;17.40;84.00;;;;;;5033648;28;20217;-37
2022/04/21 10:33:01;;;;;;;3.88;3.22;;;17.40;83.70;;;;;;5039077;28;20353;-37
2022/04/21 10:35:28;;;;;;;4.85;3.25;;;17.40;83.40;;;;;;5039724;28;20192;-37
2022/04/21 10:38:14;;;;;;;8.10;2.60;;;17.50;83.70;;;;;;5041271;28;20200;-39
2022/04/21 10:41:33;;;;;;;5.10;3.30;;;17.60;83.30;;;;;;5032435;28;20216;-38
2022/04/21 10:44:04;;;;;;;5.47;3.30;;;17.60;83.50;;;;;;5038878;28;20742;-37
2022/04/21 10:46:34;;;;;;;7.65;3.47;;;17.60;83.00;;;;;;5041163;28;20212;-40
2022/04/21 10:50:05;;;;;;;6.68;3.40;;;17.70;83.30;;;;;;5029070;28;20228;-39
2022/04/21 10:57:58;;;;;;;6.97;4.25;;;17.70;83.00;;;;;;5025752;28;20208;-38
2022/04/21 11:00:28;;;;;;;5.35;3.33;;;17.80;82.60;;;;;;5044411;28;20208;-38
2022/04/21 11:03:06;;;;;;;6.50;3.42;;;17.80;83.30;;;;;;5025960;28;20212;-37
2022/04/21 11:05:39;;;;;;;6.78;3.78;;;17.90;83.10;;;;;;5026385;28;20567;-36
2022/04/21 11:08:17;;;;;;;8.82;3.60;;;17.90;82.40;;;;;;5029780;28;20742;-38
2022/04/21 11:10:45;;;;;;;6.20;3.35;;;17.90;83.20;;;;;;5043100;28;20211;-35
2022/04/21 11:13:21;;;;;;;5.57;3.28;;;18.00;82.90;;;;;;5027262;28;20211;-37
2022/04/21 11:15:54;;;;;;;7.32;3.13;;;18.10;83.30;;;;;;5046348;28;20304;-37
2022/04/21 11:18:31;;;;;;;6.95;2.67;;;18.10;83.30;;;;;;5044526;28;20485;-37
2022/04/21 11:21:23;;;;;;;5.25;2.55;;;18.20;83.40;;;;;;5041675;28;20214;-38
2022/04/21 11:23:50;;;;;;;4.80;2.95;;;18.20;83.60;;;;;;5027508;28;20209;-41
2022/04/21 11:26:24;;;;;;;12.10;3.58;;;18.30;83.60;;;;;;5032127;28;20208;-36
2022/04/21 11:28:59;;;;;;;7.82;2.65;;;18.20;81.70;;;;;;5046319;28;20211;-37
2022/04/21 11:31:27;;;;;;;5.38;2.70;;;18.20;81.70;;;;;;5042143;28;20208;-37
2022/04/21 11:34:00;;;;;;;3.17;2.42;;;18.20;82.20;;;;;;5028021;28;20224;-36
2022/04/21 11:36:36;;;;;;;6.05;2.70;;;18.20;79.40;;;;;;5031436;28;20192;-36
2022/04/21 11:39:07;;;;;;;5.40;2.65;;;18.20;81.30;;;;;;5045130;28;20323;-37
2022/04/21 11:41:44;;;;;;;4.05;2.80;;;18.20;80.70;;;;;;5039807;28;20258;-38
2022/04/21 11:44:11;;;;;;;6.10;2.65;;;18.30;81.30;;;;;;5036071;28;20640;-36
2022/04/21 11:46:40;;;;;;;4.35;2.90;;;18.20;80.30;;;;;;5035041;28;20254;-37
2022/04/21 11:49:10;;;;;;;4.82;2.90;;;18.30;80.40;;;;;;5033146;28;20717;-38
2022/04/21 11:51:38;;;;;;;6.63;3.17;;;18.30;80.70;;;;;;5033908;28;20200;-38
2022/04/21 11:54:09;;;;;;;4.18;2.22;;;18.30;80.80;;;;;;5023405;28;20231;-37
2022/04/21 11:56:40;;;;;;;5.35;2.95;;;18.30;81.30;;;;;;5030802;28;20227;-38
2022/04/21 11:59:10;;;;;;;5.18;2.75;;;18.40;81.50;;;;;;5049313;28;20219;-37
2022/04/21 12:07:19;;;;;;;4.93;2.42;;;18.70;81.90;;;;;;5023479;28;20254;-37
2022/04/21 12:09:50;;;;;;;2.92;2.03;;;18.80;80.40;;;;;;5023675;28;20705;-36
2022/04/21 12:12:23;;;;;;;5.55;2.55;;;18.80;80.40;;;;;;5031952;28;20275;-38
2022/04/21 12:14:53;;;;;;;5.35;1.98;;;18.70;79.20;;;;;;5036730;28;20278;-38
2022/04/21 12:17:21;;;;;;;2.28;1.80;;;18.70;78.10;;;;;;5035643;28;20200;-38
2022/04/21 12:19:53;;;;;;;3.85;2.17;;;18.70;78.40;;;;;;5040958;28;20304;-38
2022/04/21 12:22:32;;;;;;;2.83;1.98;;;18.60;76.80;;;;;;5038920;28;20302;-38
2022/04/21 12:25:02;;;;;;;9.68;2.40;;;18.60;78.50;;;;;;5032548;28;20222;-38
2022/04/21 12:27:36;;;;;;;5.05;1.80;;;18.70;77.70;;;;;;5031861;28;20301;-39
2022/04/21 12:30:11;;;;;;;4.53;1.75;;;18.80;79.00;;;;;;5018324;28;20228;-39
2022/04/21 12:32:47;;;;;;;6.38;2.10;;;18.90;79.50;;;;;;5028117;28;20193;-39
2022/04/21 12:35:19;;;;;;;3.47;1.95;;;18.90;79.00;;;;;;5041951;28;20307;-38
2022/04/21 12:40:52;;;;;;;6.50;2.10;;;19.00;77.30;;;;;;5044333;28;20214;-37
2022/04/21 12:43:27;;;;;;;7.65;2.03;;;19.00;78.20;;;;;;5036711;28;20663;-37
2022/04/21 12:46:01;;;;;;;3.70;2.22;;;19.10;79.20;;;;;;5041121;28;20240;-37
2022/04/21 12:48:28;;;;;;;3.50;1.95;;;19.10;79.40;;;;;;5032580;28;20203;-40
2022/04/21 12:50:58;;;;;;;4.90;2.17;;;19.20;78.50;;;;;;5043200;28;20343;-40
2022/04/21 12:53:33;;;;;;;3.70;2.00;;;19.20;78.50;;;;;;5041939;28;20212;-40
2022/04/21 12:56:15;;;;;;;3.15;1.88;;;19.20;77.10;;;;;;5032150;28;20334;-40
2022/04/21 12:58:44;;;;;;;8.27;2.20;;;19.20;78.40;;;;;;5039026;28;20295;-40
2022/04/21 13:01:12;;;;;;;2.17;1.98;;;19.30;78.90;;;;;;5035511;28;20629;-40
2022/04/21 13:03:42;;;;;;;4.00;2.03;;;19.30;77.30;;;;;;5033633;28;20225;-40
2022/04/21 13:06:12;;;;;;;3.70;2.15;;;19.30;75.40;;;;;;5041761;28;20360;-37
2022/04/21 13:08:43;;;;;;;2.70;2.25;;;19.20;73.10;;;;;;5034780;28;20265;-37
2022/04/21 13:11:13;;;;;;;4.78;2.60;;;19.20;75.90;;;;;;5028999;28;20599;-37
2022/04/21 13:13:40;;;;;;;2.67;2.25;;;19.20;73.80;;;;;;5036958;28;20741;-38
2022/04/21 13:16:10;;;;;;;5.20;2.00;;;19.20;75.50;;;;;;5037379;28;20295;-38
2022/04/21 13:18:43;;;;;;;6.13;2.58;;;19.30;76.20;;;;;;5034167;28;20247;-37
2022/04/21 13:24:03;;;;;;;3.15;1.77;;;19.40;76.30;;;;;;5031821;28;20235;-37
2022/04/21 13:26:31;;;;;;;5.43;2.30;;;19.50;76.40;;;;;;5032701;28;20212;-37
2022/04/21 13:29:01;;;;;;;3.42;1.75;;;19.50;73.70;;;;;;5028882;28;20274;-38
2022/04/21 13:34:19;;;;;;;3.22;1.65;;;19.50;76.20;;;;;;5031159;28;20212;-37
2022/04/21 13:36:49;;;;;;;4.15;1.48;;;19.60;74.60;;;;;;5038521;28;20700;-36
2022/04/21 13:39:17;;;;;;;3.42;1.60;;;19.60;75.80;;;;;;5028429;28;20216;-37
2022/04/21 13:41:48;;;;;;;4.40;1.60;;;19.70;76.10;;;;;;5023853;28;20228;-38
2022/04/21 13:44:17;;;;;;;3.97;1.70;;;19.80;76.70;;;;;;5032524;28;20207;-37
2022/04/21 13:47:09;;;;;;;1.85;1.63;;;19.80;76.60;;;;;;5038388;28;20224;-37
2022/04/21 13:49:38;;;;;;;3.88;1.77;;;19.80;75.50;;;;;;5033068;28;20278;-39
2022/04/21 13:52:05;;;;;;;2.67;1.63;;;19.90;76.20;;;;;;5043582;28;20274;-40
2022/04/21 13:54:35;;;;;;;2.33;1.70;;;19.90;76.40;;;;;;5037521;28;20251;-40
2022/04/21 13:57:06;;;;;;;3.92;1.52;;;20.00;76.30;;;;;;5025014;28;20845;-40
2022/04/21 13:59:35;;;;;;;4.03;1.75;;;20.10;75.90;;;;;;5027060;28;20193;-38
2022/04/21 14:02:06;;;;;;;3.88;1.60;;;20.10;76.60;;;;;;5029398;28;20215;-39
2022/04/21 14:04:35;;;;;;;4.75;1.60;;;20.10;75.20;;;;;;5031953;28;20237;-38